Time;durP1;ratioP1;P1;durP2;ratioP2;P2;SDS_P1;SDS_P2;PMS_P1;PMS_P2;Temp;Humidity;BMP_temperature;BMP_pressure;BME280_temperature;BME280_humidity;BME280_pressure;Samples;Min_cycle;Max_cycle;Signal;HPM_P1;HPM_P2
2023/06/10 00:02:22;;;;;;;6.83;1.77;;;;;;;14.24;63.03;100056.61;1744365;81;21122;-66
2023/06/10 00:04:49;;;;;;;8.58;2.50;;;;;;;14.23;63.05;100056.71;1732885;81;21718;-64
2023/06/10 00:07:16;;;;;;;;;;;;;;;14.23;63.12;100059.34;1739685;82;21067;-66
2023/06/10 00:09:42;;;;;;;7.40;2.83;;;;;;;14.20;63.25;100067.36;1741147;81;20514;-68
2023/06/10 00:12:10;;;;;;;7.80;2.10;;;;;;;14.16;63.36;100059.30;1741535;81;20957;-66
2023/06/10 00:14:43;;;;;;;3.33;1.98;;;;;;;14.13;63.68;100060.31;1714558;82;21140;-62
2023/06/10 00:17:09;;;;;;;6.28;1.90;;;;;;;14.13;63.54;100060.78;1739115;82;21012;-62
2023/06/10 00:19:41;;;;;;;5.60;1.95;;;;;;;14.09;63.78;100068.84;1737288;81;21565;-62
2023/06/10 00:22:06;;;;;;;3.77;1.90;;;;;;;14.07;63.85;100066.75;1741174;81;20969;-62
2023/06/10 00:24:35;;;;;;;6.15;1.82;;;;;;;14.04;63.74;100070.87;1741899;82;21053;-62
2023/06/10 00:27:01;;;;;;;5.37;1.75;;;;;;;14.01;63.84;100070.20;1742072;82;21095;-63
2023/06/10 00:29:28;;;;;;;6.40;2.10;;;;;;;14.00;63.89;100071.11;1741225;81;21088;-63
2023/06/10 00:31:57;;;;;;;3.58;2.00;;;;;;;13.97;64.05;100070.81;1739907;82;21665;-62
2023/06/10 00:34:24;;;;;;;6.85;2.30;;;;;;;13.92;64.04;100076.81;1743020;81;20997;-63
2023/06/10 00:36:51;;;;;;;7.30;2.17;;;;;;;13.90;64.53;100081.30;1737430;81;21535;-63
2023/06/10 00:39:19;;;;;;;6.77;2.27;;;;;;;13.89;64.47;100079.58;1738042;81;21084;-63
2023/06/10 00:41:46;;;;;;;10.15;2.17;;;;;;;13.87;64.71;100073.59;1737757;82;21043;-64
2023/06/10 00:44:14;;;;;;;8.60;1.70;;;;;;;13.84;64.60;100068.52;1737703;81;21127;-62
2023/06/10 00:46:41;;;;;;;8.00;2.70;;;;;;;13.78;64.63;100069.70;1737672;82;21123;-63
2023/06/10 00:49:09;;;;;;;8.13;2.70;;;;;;;13.73;64.74;100073.51;1723246;82;21632;-63
2023/06/10 00:51:36;;;;;;;7.53;2.05;;;;;;;13.72;64.85;100074.42;1740626;82;21689;-65
2023/06/10 00:54:06;;;;;;;5.50;1.70;;;;;;;13.69;64.83;100075.42;1739450;80;21032;-62
2023/06/10 00:56:34;;;;;;;3.33;1.47;;;;;;;13.69;64.91;100070.66;1745106;81;21558;-63
2023/06/10 00:59:01;;;;;;;3.90;1.90;;;;;;;13.65;65.13;100077.37;1734923;80;21132;-63
2023/06/10 01:01:29;;;;;;;6.85;2.05;;;;;;;13.63;65.05;100079.23;1730228;81;21527;-62
2023/06/10 01:03:58;;;;;;;6.67;1.98;;;;;;;13.60;65.42;100076.78;1726924;81;21044;-63
2023/06/10 01:06:47;;;;;;;7.90;1.72;;;;;;;13.60;65.54;100089.89;1725278;81;21564;-65
2023/06/10 01:09:14;;;;;;;4.22;1.90;;;;;;;13.59;65.70;100088.22;1730804;82;21063;-63
2023/06/10 01:11:46;;;;;;;8.98;2.10;;;;;;;13.59;65.67;100096.08;1730473;81;21120;-65
2023/06/10 01:14:16;;;;;;;4.75;1.98;;;;;;;13.56;66.10;100096.25;1723731;82;21040;-63
2023/06/10 01:16:48;;;;;;;4.55;1.75;;;;;;;13.55;65.86;100097.16;1732841;81;21040;-63
2023/06/10 01:19:17;;;;;;;10.25;1.95;;;;;;;13.49;66.10;100093.56;1728842;81;21549;-63
2023/06/10 01:21:48;;;;;;;7.20;1.92;;;;;;;13.48;66.30;100098.44;1728828;81;21065;-63
2023/06/10 01:24:13;;;;;;;5.37;1.70;;;;;;;13.46;65.97;100095.04;1728078;81;21643;-62
2023/06/10 01:26:42;;;;;;;4.12;1.72;;;;;;;13.43;65.92;100101.77;1724331;82;21095;-63
2023/06/10 01:29:15;;;;;;;5.90;1.82;;;;;;;13.39;66.20;100104.18;1731559;81;21053;-63
2023/06/10 01:31:53;;;;;;;6.92;1.60;;;;;;;13.37;66.45;100100.78;1728474;81;21141;-62
2023/06/10 01:34:23;;;;;;;6.47;2.15;;;;;;;13.35;66.56;100101.31;1707215;82;21120;-63
2023/06/10 01:36:51;;;;;;;11.65;1.80;;;;;;;13.35;66.72;100105.25;1725658;81;21576;-63
2023/06/10 01:39:20;;;;;;;4.70;1.95;;;;;;;13.30;66.60;100105.48;1729868;81;20994;-63
2023/06/10 01:41:49;;;;;;;7.03;1.90;;;;;;;13.29;66.70;100113.45;1729789;82;21064;-63
2023/06/10 01:44:22;;;;;;;6.65;2.30;;;;;;;13.21;66.63;100112.02;1729753;82;21575;-63
2023/06/10 01:46:51;;;;;;;7.45;1.95;;;;;;;13.17;66.69;100114.91;1728417;82;21088;-62
2023/06/10 01:49:17;;;;;;;5.00;1.80;;;;;;;13.17;66.77;100120.15;1726343;81;21013;-62
2023/06/10 01:51:46;;;;;;;8.58;1.45;;;;;;;13.11;66.83;100117.84;1725256;81;21155;-62
2023/06/10 01:54:12;;;;;;;6.10;1.60;;;;;;;13.10;66.89;100122.22;1730535;81;20976;-64
2023/06/10 01:56:40;;;;;;;6.58;2.05;;;;;;;13.07;67.23;100125.00;1705288;82;20954;-64
2023/06/10 01:59:07;;;;;;;3.58;1.40;;;;;;;13.04;67.65;100130.40;1735106;81;21043;-63
2023/06/10 02:01:34;;;;;;;4.03;1.80;;;;;;;13.04;67.23;100135.64;1744674;81;21055;-62
2023/06/10 02:04:00;;;;;;;5.45;1.50;;;;;;;13.00;67.25;100141.98;1743919;81;21036;-63
2023/06/10 02:06:27;;;;;;;7.47;1.80;;;;;;;12.98;67.43;100142.52;1738313;81;21044;-63
2023/06/10 02:09:08;;;;;;;9.00;1.30;;;;;;;12.96;67.73;100149.59;1740809;81;21611;-63
2023/06/10 02:11:27;;;;;;;6.35;1.52;;;;;;;12.96;67.62;100144.36;1737902;81;21107;-63
2023/06/10 02:13:51;;;;;;;3.83;1.42;;;;;;;12.92;67.59;100148.07;1739763;81;20952;-63
2023/06/10 02:16:18;;;;;;;3.98;1.72;;;;;;;12.92;67.83;100149.37;1746036;81;21082;-63
2023/06/10 02:18:46;;;;;;;8.33;1.60;;;;;;;12.86;67.87;100153.16;1736876;81;21080;-63
2023/06/10 02:21:17;;;;;;;6.92;1.62;;;;;;;12.86;68.08;100154.47;1740263;81;21104;-63
2023/06/10 02:23:42;;;;;;;7.35;1.47;;;;;;;12.83;67.58;100158.55;1738590;81;21032;-64
2023/06/10 02:26:09;;;;;;;4.90;1.30;;;;;;;12.74;67.92;100157.23;1744948;81;21139;-62
2023/06/10 02:28:35;;;;;;;4.97;1.30;;;;;;;12.74;67.92;100157.23;1742447;81;21020;-64
2023/06/10 02:31:04;;;;;;;7.80;1.37;;;;;;;12.71;68.27;100158.67;1744510;81;21040;-66
2023/06/10 02:33:33;;;;;;;4.80;1.37;;;;;;;12.68;68.21;100160.60;1743178;81;21091;-63
2023/06/10 02:35:59;;;;;;;5.47;1.40;;;;;;;12.59;68.57;100152.73;1740868;81;21101;-64
2023/06/10 02:38:25;;;;;;;3.12;1.27;;;;;;;12.59;68.57;100152.73;1744703;81;21573;-67
2023/06/10 02:40:51;;;;;;;2.65;1.37;;;;;;;12.58;68.72;100164.14;1743701;81;21515;-62
2023/06/10 02:43:25;;;;;;;4.70;1.25;;;;;;;12.58;68.72;100164.14;1743794;81;20980;-62
2023/06/10 02:45:46;;;;;;;1.95;1.00;;;;;;;12.59;68.55;100160.59;1740105;81;21544;-63
2023/06/10 02:48:14;;;;;;;4.58;1.55;;;;;;;12.61;68.62;100161.38;1726751;81;21024;-66
2023/06/10 02:50:40;;;;;;;2.80;1.10;;;;;;;12.63;68.62;100154.30;1744264;81;21109;-63
2023/06/10 02:53:06;;;;;;;6.60;1.50;;;;;;;12.65;68.59;100160.28;1750022;81;21041;-66
2023/06/10 02:55:35;;;;;;;4.15;1.65;;;;;;;12.67;69.16;100158.45;1742093;81;21017;-65
2023/06/10 02:58:06;;;;;;;6.50;1.30;;;;;;;12.67;69.16;100158.45;1741425;81;21119;-63
2023/06/10 03:00:35;;;;;;;2.72;1.40;;;;;;;12.67;69.12;100166.31;1725915;81;21127;-66
2023/06/10 03:03:04;;;;;;;4.30;1.35;;;;;;;12.69;69.51;100158.39;1722001;82;20985;-66
2023/06/10 03:05:31;;;;;;;7.60;1.30;;;;;;;12.75;69.50;100166.78;1752268;80;21013;-68
2023/06/10 03:07:57;;;;;;;5.55;1.40;;;;;;;12.78;69.48;100154.00;1756353;80;21489;-65
2023/06/10 03:10:28;;;;;;;3.42;1.30;;;;;;;12.78;69.48;100154.00;1751913;80;21059;-62
2023/06/10 03:12:55;;;;;;;4.22;1.05;;;;;;;12.81;69.52;100160.86;1673081;84;21094;-63
2023/06/10 03:15:28;;;;;;;6.85;1.05;;;;;;;12.73;69.63;100147.66;1675459;84;21087;-63
2023/06/10 03:17:53;;;;;;;2.87;1.30;;;;;;;12.88;69.81;100168.79;1644581;86;21067;-63
2023/06/10 03:20:21;;;;;;;5.95;0.85;;;;;;;12.92;69.75;100172.97;1672799;84;21118;-65
2023/06/10 03:22:48;;;;;;;3.40;1.25;;;;;;;12.96;69.69;100174.50;1675650;84;21031;-62
2023/06/10 03:25:16;;;;;;;3.45;1.05;;;;;;;13.00;69.96;100176.06;1673937;84;21082;-62
2023/06/10 03:27:45;;;;;;;2.83;0.85;;;;;;;13.06;70.19;100175.75;1672566;84;21068;-63
2023/06/10 03:30:13;;;;;;;2.75;1.00;;;;;;;13.14;70.21;100170.97;1675032;84;21023;-62
2023/06/10 03:32:39;;;;;;;6.28;1.30;;;;;;;13.20;70.24;100173.27;1674286;84;21126;-62
2023/06/10 03:35:06;;;;;;;4.03;1.20;;;;;;;13.24;70.21;100174.42;1675057;84;21055;-62
2023/06/10 03:37:32;;;;;;;;;;;;;;;13.28;70.12;100166.83;1676305;84;21056;-62
2023/06/10 03:40:03;;;;;;;7.30;1.00;;;;;;;13.32;70.13;100163.11;1673745;84;20525;-63
2023/06/10 03:42:32;;;;;;;4.70;1.20;;;;;;;13.35;70.09;100168.20;1675665;81;21043;-63
2023/06/10 03:44:58;;;;;;;4.05;0.90;;;;;;;13.38;70.02;100161.48;1750080;80;21053;-63
2023/06/10 03:47:24;;;;;;;6.83;1.32;;;;;;;13.44;70.20;100165.09;1749881;80;21102;-63
2023/06/10 03:49:51;;;;;;;2.47;1.17;;;;;;;13.52;70.11;100163.38;1753597;80;21029;-64
2023/06/10 03:52:18;;;;;;;8.40;1.27;;;;;;;13.56;70.06;100165.78;1751781;80;21026;-63
2023/06/10 03:54:45;;;;;;;4.83;1.07;;;;;;;13.62;70.35;100172.00;1728063;82;21091;-63
2023/06/10 03:57:11;;;;;;;3.92;0.80;;;;;;;13.68;70.04;100171.30;1729487;82;21002;-63
2023/06/10 03:59:39;;;;;;;4.55;1.22;;;;;;;13.72;70.11;100170.20;1746554;81;21636;-63
2023/06/10 04:02:06;;;;;;;5.70;1.52;;;;;;;13.79;70.02;100178.14;1751165;80;21104;-66
2023/06/10 04:04:33;;;;;;;;;;;;;;;13.83;70.21;100179.19;1746942;82;21179;-64
2023/06/10 04:07:01;;;;;;;4.62;1.20;;;;;;;13.91;70.05;100178.78;1740819;80;20158;-63
2023/06/10 04:09:32;;;;;;;4.78;1.20;;;;;;;13.96;70.02;100178.08;1757690;80;21071;-63
2023/06/10 04:11:58;;;;;;;4.55;1.95;;;;;;;14.05;70.08;100177.58;1743277;81;21048;-64
2023/06/10 04:14:26;;;;;;;5.75;1.20;;;;;;;14.10;69.97;100175.55;1727752;81;21535;-63
2023/06/10 04:16:59;;;;;;;3.35;1.22;;;;;;;14.15;69.90;100173.16;1766153;80;21075;-64
2023/06/10 04:19:25;;;;;;;4.80;1.47;;;;;;;14.23;70.08;100186.25;1765422;80;21496;-63
2023/06/10 04:21:52;;;;;;;3.02;1.45;;;;;;;14.27;69.74;100184.28;1773781;80;21121;-63
2023/06/10 04:24:18;;;;;;;5.53;1.10;;;;;;;14.34;69.86;100188.28;1769797;79;21649;-62
2023/06/10 04:26:44;;;;;;;4.17;1.30;;;;;;;14.35;69.64;100192.59;1766024;80;21063;-62
2023/06/10 04:29:11;;;;;;;6.55;1.32;;;;;;;14.39;69.71;100191.47;1772173;79;21000;-63
2023/06/10 04:31:45;;;;;;;1.42;1.00;;;;;;;14.44;69.49;100178.94;1772515;80;21464;-62
2023/06/10 04:34:11;;;;;;;2.42;1.35;;;;;;;14.51;69.66;100180.30;1759242;80;20999;-63
2023/06/10 04:36:41;;;;;;;6.15;1.50;;;;;;;14.59;69.53;100182.53;1764818;80;21035;-65
2023/06/10 04:39:16;;;;;;;6.50;1.20;;;;;;;14.72;69.42;100187.92;1764678;79;21130;-64
2023/06/10 04:41:43;;;;;;;6.47;1.50;;;;;;;14.78;69.27;100184.94;1762523;80;21031;-66
2023/06/10 04:44:10;;;;;;;7.35;1.27;;;;;;;14.82;69.13;100191.73;1770228;80;21028;-63
2023/06/10 04:46:41;;;;;;;3.02;1.50;;;;;;;14.90;69.25;100193.45;1768601;80;22290;-67
2023/06/10 04:49:10;;;;;;;2.37;1.15;;;;;;;14.90;68.75;100202.66;1767195;80;20967;-63
2023/06/10 04:51:37;;;;;;;1.80;1.47;;;;;;;14.89;68.89;100204.05;1762671;79;21042;-62
2023/06/10 04:54:04;;;;;;;4.47;1.77;;;;;;;14.93;68.72;100207.73;1761392;80;21156;-63
2023/06/10 04:56:33;;;;;;;5.23;1.30;;;;;;;14.99;68.49;100208.69;1770274;79;21037;-68
2023/06/10 04:59:00;;;;;;;4.20;1.70;;;;;;;15.10;68.34;100205.92;1763885;79;21515;-63
2023/06/10 05:01:31;;;;;;;4.37;1.77;;;;;;;15.12;68.03;100209.28;1753826;80;21094;-63
2023/06/10 05:03:55;;;;;;;4.33;1.40;;;;;;;15.20;67.91;100207.05;1753150;80;21010;-61
2023/06/10 05:06:21;;;;;;;4.53;1.47;;;;;;;15.33;67.83;100210.66;1746871;80;21126;-62
2023/06/10 05:08:48;;;;;;;7.35;1.37;;;;;;;15.41;67.42;100221.58;1749478;80;20988;-64
2023/06/10 05:11:14;;;;;;;2.83;1.60;;;;;;;15.50;67.49;100214.08;1724019;82;21042;-64
2023/06/10 05:13:43;;;;;;;2.98;1.50;;;;;;;15.60;67.31;100221.78;1727345;82;21054;-63
2023/06/10 05:16:10;;;;;;;2.20;1.15;;;;;;;15.69;67.10;100222.59;1724439;82;21141;-66
2023/06/10 05:18:36;;;;;;;2.77;1.22;;;;;;;15.83;66.78;100225.23;1723043;82;21029;-63
2023/06/10 05:21:06;;;;;;;6.30;1.37;;;;;;;15.89;66.31;100228.80;1727461;82;21110;-67
2023/06/10 05:23:39;;;;;;;4.53;1.43;;;;;;;16.00;66.50;100220.72;1727378;82;21067;-62
2023/06/10 05:26:12;;;;;;;2.70;1.42;;;;;;;16.07;65.76;100229.92;1708364;82;21255;-63
2023/06/10 05:28:38;;;;;;;4.50;1.30;;;;;;;16.11;65.08;100226.17;1725962;82;21057;-65
2023/06/10 05:31:05;;;;;;;2.75;1.50;;;;;;;16.11;64.63;100236.71;1724665;82;20987;-63
2023/06/10 05:33:31;;;;;;;3.58;1.45;;;;;;;16.09;65.06;100226.73;1727132;82;20978;-64
2023/06/10 05:35:59;;;;;;;9.80;2.10;;;;;;;16.11;64.39;100223.54;1725817;81;21114;-66
2023/06/10 05:38:25;;;;;;;5.67;1.52;;;;;;;16.21;64.36;100236.48;1729155;81;21091;-68
2023/06/10 05:40:51;;;;;;;3.58;1.40;;;;;;;16.24;64.20;100236.30;1723533;82;21054;-68
2023/06/10 05:43:18;;;;;;;10.63;1.80;;;;;;;16.22;63.96;100239.52;1711629;82;21072;-70
2023/06/10 05:45:44;;;;;;;2.73;1.40;;;;;;;16.27;63.71;100237.45;1753963;81;21596;-68
2023/06/10 05:48:10;;;;;;;4.37;1.50;;;;;;;16.39;63.29;100242.89;1755383;81;20994;-64
2023/06/10 05:50:38;;;;;;;5.03;1.60;;;;;;;16.50;62.55;100241.73;1754998;81;21015;-66
2023/06/10 05:53:08;;;;;;;3.80;1.80;;;;;;;16.62;62.39;100260.72;1756974;81;21113;-63
2023/06/10 05:55:36;;;;;;;3.92;1.40;;;;;;;16.50;61.14;100248.33;1753472;81;21022;-64
2023/06/10 05:58:02;;;;;;;5.67;1.42;;;;;;;16.48;61.43;100252.84;1757636;81;21030;-64
2023/06/10 06:00:30;;;;;;;4.90;2.30;;;;;;;16.58;60.88;100253.96;1754186;81;21146;-64
2023/06/10 06:02:57;;;;;;;6.37;1.62;;;;;;;16.65;61.04;100257.05;1759234;80;21849;-64
2023/06/10 06:05:23;;;;;;;3.72;1.77;;;;;;;16.78;60.89;100248.28;1756253;80;21474;-65
2023/06/10 06:07:49;;;;;;;1.60;1.10;;;;;;;16.76;60.67;100263.34;1751841;80;21536;-63
2023/06/10 06:10:17;;;;;;;2.90;1.37;;;;;;;16.62;60.40;100255.45;1759881;80;21039;-61
2023/06/10 06:12:44;;;;;;;3.77;1.70;;;;;;;16.61;60.26;100261.67;1757465;81;21097;-63
2023/06/10 06:15:11;;;;;;;3.87;1.47;;;;;;;16.62;59.24;100271.27;1755577;80;21584;-65
2023/06/10 06:17:38;;;;;;;2.47;1.42;;;;;;;16.78;59.31;100269.38;1754359;81;21024;-62
2023/06/10 06:20:06;;;;;;;6.78;1.42;;;;;;;16.89;59.42;100258.61;1750797;80;21052;-63
2023/06/10 06:22:32;;;;;;;7.30;1.40;;;;;;;16.86;59.18;100250.87;1747748;81;21032;-64
2023/06/10 06:24:59;;;;;;;3.55;1.42;;;;;;;17.04;59.07;100259.40;1758381;80;21144;-63
2023/06/10 06:27:25;;;;;;;2.90;1.60;;;;;;;17.19;58.86;100268.45;1747837;80;21064;-63
2023/06/10 06:29:52;;;;;;;4.60;1.90;;;;;;;17.26;58.69;100262.31;1762749;80;21451;-63
2023/06/10 06:32:20;;;;;;;4.62;1.15;;;;;;;17.27;58.02;100271.06;1749025;80;21047;-63
2023/06/10 06:34:47;;;;;;;30.30;2.45;;;;;;;17.34;57.59;100281.60;1755409;80;20981;-63
2023/06/10 06:37:13;;;;;;;5.28;1.67;;;;;;;17.43;57.86;100275.70;1752466;80;21046;-63
2023/06/10 06:39:39;;;;;;;5.60;1.72;;;;;;;17.48;56.54;100280.20;1757428;80;21083;-64
2023/06/10 06:42:08;;;;;;;4.37;1.40;;;;;;;17.69;57.15;100276.57;1753460;80;20990;-65
2023/06/10 06:44:34;;;;;;;2.42;1.72;;;;;;;18.06;57.25;100274.94;1769795;79;21574;-63
2023/06/10 06:47:03;;;;;;;2.17;1.30;;;;;;;17.93;56.04;100296.55;1746217;80;21113;-63
2023/06/10 06:49:32;;;;;;;2.00;1.45;;;;;;;18.16;56.89;100280.89;1749500;80;21069;-63
2023/06/10 06:51:58;;;;;;;1.87;1.40;;;;;;;18.56;56.44;100289.00;1735157;81;21040;-63
2023/06/10 06:54:24;;;;;;;2.85;1.37;;;;;;;18.56;55.66;100294.28;1765923;80;21049;-64
2023/06/10 06:56:51;;;;;;;5.22;1.07;;;;;;;18.63;55.54;100313.70;1772961;80;21484;-63
2023/06/10 06:59:19;;;;;;;2.75;1.45;;;;;;;18.62;54.72;100305.39;1765471;80;21667;-63
2023/06/10 07:01:46;;;;;;;3.20;1.37;;;;;;;18.67;54.88;100301.45;1767659;80;21014;-63
2023/06/10 07:04:14;;;;;;;;;;;;;;;19.09;54.35;100305.10;1748043;81;21632;-62
2023/06/10 07:06:44;;;;;;;6.47;1.20;;;;;;;19.21;52.18;100304.19;1743736;81;20167;-64
2023/06/10 07:09:10;;;;;;;2.25;1.20;;;;;;;19.22;52.76;100331.05;1743763;80;21119;-64
2023/06/10 07:11:37;;;;;;;6.12;1.30;;;;;;;19.59;52.85;100304.45;1740125;80;21031;-63
2023/06/10 07:14:03;;;;;;;2.83;1.20;;;;;;;19.76;51.49;100322.59;1743414;81;21132;-64
2023/06/10 07:16:30;;;;;;;4.33;1.65;;;;;;;20.18;51.54;100324.72;1751481;80;21029;-63
2023/06/10 07:18:57;;;;;;;2.27;1.20;;;;;;;20.84;50.36;100328.80;1743896;81;21075;-64
2023/06/10 07:21:23;;;;;;;5.17;1.40;;;;;;;21.23;50.46;100323.41;1740531;81;21146;-65
2023/06/10 07:23:52;;;;;;;3.35;1.30;;;;;;;21.38;48.06;100356.69;1743543;81;21075;-63
2023/06/10 07:26:17;;;;;;;6.90;1.50;;;;;;;21.57;48.08;100334.76;1734099;81;21091;-63
2023/06/10 07:28:44;;;;;;;6.33;1.20;;;;;;;22.23;46.48;100344.28;1744778;81;20993;-65
2023/06/10 07:31:11;;;;;;;2.40;1.10;;;;;;;23.28;46.24;100328.79;1742634;81;21543;-64
2023/06/10 07:33:41;;;;;;;5.37;1.30;;;;;;;24.16;48.18;100297.52;1742968;81;21496;-63
2023/06/10 07:36:09;;;;;;;4.80;1.45;;;;;;;24.20;46.73;100325.59;1742986;81;21019;-65
2023/06/10 07:38:36;;;;;;;1.17;1.07;;;;;;;24.34;46.34;100339.80;1740481;81;21119;-69
2023/06/10 07:41:04;;;;;;;5.72;1.20;;;;;;;24.46;45.96;100328.97;1741770;81;21004;-63
2023/06/10 07:43:31;;;;;;;3.15;0.95;;;;;;;24.53;44.04;100344.26;1745285;81;21043;-64
2023/06/10 07:45:57;;;;;;;4.40;1.20;;;;;;;24.59;43.89;100341.49;1747564;80;21059;-64
2023/06/10 07:48:24;;;;;;;7.55;1.70;;;;;;;24.63;41.69;100338.02;1747531;81;21141;-64
2023/06/10 07:50:50;;;;;;;5.05;0.93;;;;;;;25.25;40.97;100334.22;1751320;81;21025;-64
2023/06/10 07:53:18;;;;;;;5.87;1.40;;;;;;;25.65;41.92;100338.59;1749222;81;21042;-61
2023/06/10 07:55:45;;;;;;;4.42;1.10;;;;;;;25.36;40.25;100339.33;1740906;81;21052;-62
2023/06/10 07:58:11;;;;;;;2.30;0.95;;;;;;;25.04;39.72;100342.00;1735818;81;21496;-66
2023/06/10 08:00:43;;;;;;;2.02;1.10;;;;;;;25.04;39.72;100342.00;1734353;81;21011;-63
2023/06/10 08:03:09;;;;;;;7.35;1.37;;;;;;;25.07;38.95;100344.88;1749109;81;21098;-63
2023/06/10 08:05:36;;;;;;;4.00;1.17;;;;;;;25.85;37.99;100341.09;1747386;81;20993;-64
2023/06/10 08:08:03;;;;;;;3.77;1.05;;;;;;;26.63;37.73;100340.22;1745164;81;21058;-64
2023/06/10 08:10:29;;;;;;;3.75;0.95;;;;;;;27.35;37.31;100331.21;1752730;81;21078;-65
2023/06/10 08:12:55;;;;;;;7.40;1.02;;;;;;;27.88;36.33;100345.47;1750910;81;21197;-65
2023/06/10 08:15:21;;;;;;;4.50;1.15;;;;;;;27.39;36.49;100336.09;1747225;81;21003;-65
2023/06/10 08:17:48;;;;;;;3.75;0.82;;;;;;;27.52;36.43;100338.77;1748130;81;21523;-64
2023/06/10 08:20:15;;;;;;;;;;;;;;;28.28;34.89;100342.36;1751080;81;21034;-65
2023/06/10 08:22:42;;;;;;;5.97;1.70;;;;;;;28.58;35.03;100335.92;1749629;81;20137;-66
2023/06/10 08:25:10;;;;;;;;;;;;;;;28.70;34.75;100337.70;1749357;81;21360;-66
2023/06/10 08:27:37;;;;;;;2.95;1.00;;;;;;;28.86;32.19;100344.86;1751514;81;20147;-65
2023/06/10 08:30:12;;;;;;;2.70;0.80;;;;;;;28.99;33.94;100331.69;1746478;81;21558;-65
2023/06/10 08:32:34;;;;;;;4.10;1.20;;;;;;;29.18;33.84;100336.64;1748664;81;21019;-65
2023/06/10 08:35:03;;;;;;;10.70;1.35;;;;;;;29.31;33.71;100333.84;1747957;81;21095;-64
2023/06/10 08:37:30;;;;;;;3.55;1.20;;;;;;;30.19;32.86;100353.92;1744086;81;21069;-66
2023/06/10 08:39:58;;;;;;;1.95;0.82;;;;;;;29.40;31.91;100340.83;1738588;81;21076;-62
2023/06/10 08:42:31;;;;;;;2.92;0.93;;;;;;;29.20;31.08;100338.62;1739928;81;21028;-63
2023/06/10 08:45:06;;;;;;;3.02;1.00;;;;;;;29.11;30.95;100341.04;1737831;81;21121;-64
2023/06/10 08:47:36;;;;;;;7.78;1.07;;;;;;;29.14;30.46;100332.61;1743373;81;21583;-65
2023/06/10 08:50:04;;;;;;;5.70;1.07;;;;;;;29.10;29.52;100338.03;1739626;81;20972;-64
2023/06/10 08:52:40;;;;;;;5.58;1.10;;;;;;;28.14;28.97;100348.45;1716646;81;21053;-63
2023/06/10 08:55:26;;;;;;;5.55;1.02;;;;;;;28.23;29.34;100343.41;1740711;81;21043;-63
2023/06/10 08:57:55;;;;;;;2.62;1.00;;;;;;;28.64;29.15;100333.88;1768129;80;21018;-63
2023/06/10 09:00:22;;;;;;;1.07;0.82;;;;;;;28.33;27.99;100340.52;1770198;80;21056;-63
2023/06/10 09:02:50;;;;;;;5.92;1.42;;;;;;;27.97;27.84;100342.27;1747312;81;21532;-64
2023/06/10 09:05:26;;;;;;;3.02;0.95;;;;;;;27.55;27.92;100347.81;1767128;80;21117;-64
2023/06/10 09:07:53;;;;;;;4.17;1.15;;;;;;;27.78;27.52;100357.36;1709750;82;21775;-62
2023/06/10 09:10:20;;;;;;;3.15;1.02;;;;;;;27.32;27.25;100345.78;1743893;80;21479;-64
2023/06/10 09:12:48;;;;;;;3.35;1.07;;;;;;;27.40;27.40;100349.81;1769510;79;21500;-64
2023/06/10 09:15:17;;;;;;;4.87;0.98;;;;;;;28.01;27.31;100343.62;1769753;80;20992;-63
2023/06/10 09:17:48;;;;;;;2.12;1.15;;;;;;;28.32;27.33;100331.63;1771885;80;21181;-66
2023/06/10 09:20:15;;;;;;;7.28;1.80;;;;;;;28.62;27.28;100329.17;1746777;80;21719;-64
2023/06/10 09:22:43;;;;;;;6.50;1.50;;;;;;;28.46;27.41;100344.04;1771775;79;21121;-62
2023/06/10 09:25:15;;;;;;;10.60;1.57;;;;;;;28.98;26.95;100335.37;1770983;79;21039;-62
2023/06/10 09:27:50;;;;;;;2.37;1.20;;;;;;;28.47;26.21;100345.70;1766463;79;21166;-66
2023/06/10 09:30:29;;;;;;;3.50;1.00;;;;;;;28.43;26.20;100355.10;1771713;79;21083;-63
2023/06/10 09:33:08;;;;;;;2.17;1.00;;;;;;;29.02;26.65;100339.39;1742938;79;21509;-61
2023/06/10 09:35:33;;;;;;;;;;;;;;;28.82;26.51;100329.60;1771596;80;20983;-64
2023/06/10 09:38:00;;;;;;;3.98;1.00;;;;;;;29.13;27.13;100347.09;1772133;79;20186;-65
2023/06/10 09:40:36;;;;;;;3.87;1.30;;;;;;;29.50;26.45;100362.95;1770556;80;21079;-64
2023/06/10 09:43:15;;;;;;;4.95;1.40;;;;;;;29.54;25.92;100360.22;1723658;79;1403208;-62
2023/06/10 09:45:43;;;;;;;9.00;2.08;;;;;;;29.31;26.13;100345.95;1713655;82;21095;-64
2023/06/10 09:48:11;;;;;;;3.65;1.30;;;;;;;30.04;26.36;100356.62;1687943;82;21560;-64
2023/06/10 09:50:45;;;;;;;5.17;1.25;;;;;;;30.04;25.68;100357.45;1691741;83;21003;-64
2023/06/10 09:53:17;;;;;;;3.87;1.30;;;;;;;29.49;25.67;100355.88;1717665;82;21583;-61
2023/06/10 09:55:45;;;;;;;2.95;1.37;;;;;;;28.91;25.41;100355.92;1682343;83;21061;-63
2023/06/10 09:58:11;;;;;;;5.78;1.07;;;;;;;28.86;25.76;100358.30;1715210;82;21564;-63
2023/06/10 10:00:39;;;;;;;2.22;1.30;;;;;;;28.99;25.70;100351.84;1683056;83;21101;-64
2023/06/10 10:03:07;;;;;;;5.17;1.35;;;;;;;29.58;25.91;100354.83;1664699;84;21079;-64
2023/06/10 10:05:35;;;;;;;8.45;1.65;;;;;;;30.30;26.20;100350.80;1691937;83;21159;-63
2023/06/10 10:08:01;;;;;;;;;;;;;;;31.25;26.10;100331.55;1696330;83;21076;-64
2023/06/10 10:10:27;;;;;;;14.33;1.42;;;;;;;31.32;25.06;100345.42;1693220;83;20239;-67
2023/06/10 10:12:56;;;;;;;2.42;1.40;;;;;;;31.05;25.28;100348.87;1686437;83;21124;-64
2023/06/10 10:15:26;;;;;;;6.03;1.30;;;;;;;31.02;25.11;100348.73;1668515;84;21147;-65
2023/06/10 10:18:05;;;;;;;2.83;1.12;;;;;;;30.63;25.24;100350.42;1695223;83;21409;-61
2023/06/10 10:20:34;;;;;;;2.87;1.32;;;;;;;29.99;25.16;100354.46;1664509;85;21101;-64
2023/06/10 10:23:03;;;;;;;5.28;1.52;;;;;;;30.38;25.08;100352.06;1701678;83;21098;-66
2023/06/10 10:25:38;;;;;;;3.42;1.12;;;;;;;30.20;24.92;100373.95;1693184;83;21124;-64
2023/06/10 10:28:11;;;;;;;3.47;1.00;;;;;;;30.20;25.41;100347.54;1678754;84;21140;-65
2023/06/10 10:30:44;;;;;;;2.47;0.98;;;;;;;30.74;25.69;100360.72;1679143;84;21227;-64
2023/06/10 10:33:30;;;;;;;2.00;1.17;;;;;;;31.20;24.62;100359.09;1679646;84;21139;-63
2023/06/10 10:35:58;;;;;;;2.50;1.10;;;;;;;30.92;24.73;100357.15;1698991;83;21085;-66
2023/06/10 10:38:26;;;;;;;5.85;1.60;;;;;;;30.76;24.74;100349.25;1687176;84;22466;-64
2023/06/10 10:40:55;;;;;;;3.67;1.20;;;;;;;30.47;24.87;100353.66;1691277;83;21050;-64
2023/06/10 10:43:23;;;;;;;1.75;1.00;;;;;;;30.62;25.15;100360.89;1690553;83;20965;-64
2023/06/10 10:46:00;;;;;;;5.45;1.98;;;;;;;30.23;24.71;100360.15;1689610;83;21080;-67
2023/06/10 10:48:31;;;;;;;1.85;0.80;;;;;;;29.92;25.23;100354.89;1688904;83;21147;-66
2023/06/10 10:50:58;;;;;;;120.33;9.50;;;;;;;30.61;24.98;100351.94;1692552;83;21355;-65
2023/06/10 10:53:28;;;;;;;6.28;1.47;;;;;;;30.35;25.01;100363.73;1690757;83;21093;-66
2023/06/10 10:56:10;;;;;;;3.37;1.20;;;;;;;30.23;24.83;100360.66;1666915;84;21099;-67
2023/06/10 10:58:36;;;;;;;2.70;1.32;;;;;;;30.45;25.07;100366.98;1660222;85;21098;-68
2023/06/10 11:01:14;;;;;;;3.08;1.45;;;;;;;28.63;24.32;100359.08;1660718;84;21106;-66
2023/06/10 11:03:46;;;;;;;2.67;1.15;;;;;;;28.18;24.85;100359.70;1707383;83;20973;-71
2023/06/10 11:06:17;;;;;;;2.40;1.17;;;;;;;27.65;25.28;100361.91;1709942;82;21120;-67
2023/06/10 11:08:51;;;;;;;3.55;1.10;;;;;;;27.82;25.30;100367.62;1711074;83;21187;-65
2023/06/10 11:11:30;;;;;;;4.05;1.40;;;;;;;27.64;26.00;100377.64;1687137;83;21587;-65
2023/06/10 11:14:06;;;;;;;40.35;2.87;;;;;;;27.53;25.34;100371.27;1700070;83;21631;-65
2023/06/10 11:16:44;;;;;;;3.47;1.30;;;;;;;26.99;26.03;100368.97;1677185;84;21211;-70
2023/06/10 11:19:14;;;;;;;5.00;1.32;;;;;;;26.77;26.48;100349.83;1702090;83;21090;-67
2023/06/10 11:22:02;;;;;;;3.95;1.70;;;;;;;26.28;25.90;100384.37;1695563;83;21089;-68
2023/06/10 11:24:31;;;;;;;5.92;1.70;;;;;;;25.68;26.75;100375.72;1698054;83;21615;-66
2023/06/10 11:27:25;;;;;;;2.22;1.30;;;;;;;25.92;26.92;100383.62;1697299;83;21101;-65
2023/06/10 11:30:13;;;;;;;3.27;1.50;;;;;;;25.64;26.68;100382.36;1715200;82;21635;-70
2023/06/10 11:32:36;;;;;;;6.22;1.47;;;;;;;25.09;26.99;100375.77;1682278;83;22551;-70
2023/06/10 11:35:04;;;;;;;5.72;1.52;;;;;;;25.45;27.88;100377.16;1686633;83;21086;-66